Ashland, WV

4:17 AM EDT on August 31, 2015 (GMT -0400)
185 Beeson rd | | Change Station
CLOSE
Current Station
Personal Weather Station
Location: Lashmeet, WV
Elevation: 2513 ft
Nearby Weather Stations

Elev 2513 ft 37.42 °N, 81.20 °W | Updated 1 minute ago

Mostly Cloudy
Mostly Cloudy
63.1 °F
Feels Like 63.1 °F
N
0.0
Wind Variable Wind from SE
Gusts 0.0 mph

Today
High -- | Low -- °F
--% Chance of Precip.
Yesterday
High -- | Low -- °F
Precip. -- in
6:55 AM 7:56 PM
Waning Gibbous, 96% visible
Pressure 30.09 in
Visibility 10.0 miles
Clouds Mostly Cloudy 7500 ft
Overcast 11000 ft
Dew Point 62 °F
Humidity 96%
Rainfall 0.00 in
Snow Depth Not available.
UV 0 out of 12
Pollen 8.70 out of 12
Air Quality Not available.
Flu Activity Not available.
METAR KBLF 310752Z AUTO 00000KT 10SM -RA BKN075 OVC110 19/15 A3019 RMK AO2 RAB47 SLP188 P0000 T01890150
Pressure 30.09 in
Visibility 10.0 miles
Clouds Mostly Cloudy 7500 ft
Overcast 11000 ft
Dew Point 62 °F
Humidity 96%
Rainfall 0.00 in
Snow Depth Not available.
UV 0 out of 12
Pollen 8.70 out of 12
Air Quality Not available.
Flu Activity Not available.
METAR KBLF 310752Z AUTO 00000KT 10SM -RA BKN075 OVC110 19/15 A3019 RMK AO2 RAB47 SLP188 P0000 T01890150

10-Day Weather Forecast

×

Almanac

Astronomy

Aug. 31, 2015 Rise Set
Actual Time
Civil Twilight
Nautical Twilight
Astronomical Twilight
Moon
Length of Visible Light
Length of Day
Tomorrow will be .
, % of the Moon is Illuminated

Today's Extremes

State Highs State Lows

Community

WunderPhotos

Upload Photos

1,851,220 photos uploaded!

WunderBlogs® & News

Nearby

Air Quality

  Air Quality AQ Index Pollutant
Not available.

Snow Depth

Station Depth Elevation

Earthquake Activity

City Distance Mag. Time & Date
Minimum magnitude displayed is 2.5.

Coastal Water Temperatures

Place Temperature

Stations

Nearby Weather Stations

Station Location Temp. Windchill Dew Point Humidity Wind Precip. Elev Updated Type